<?xml version="1.0" encoding="UTF-8" standalone="no" ?>
<gpx xmlns="http://www.topografix.com/GPX/1/1" creator="www.plotaroute.com" version="1.1"  xmlns:xsi="http://www.w3.org/2001/XMLSchema-instance" xsi:schemaLocation="http://www.topografix.com/GPX/1/1 http://www.topografix.com/GPX/1/1/gpx.xsd">
<metadata>
<desc>Route created on plotaroute.com</desc>
</metadata>
<trk>
<name>1990-leJog-Day9</name>
<trkseg>
<trkpt lat="55.443086" lon="-2.735715">
<ele>91</ele>
<time>2020-02-20T00:00:00Z</time></trkpt>
<trkpt lat="55.443072" lon="-2.735709">
<ele>91</ele>
<time>2020-02-20T00:00:00Z</time></trkpt>
<trkpt lat="55.442811" lon="-2.737377">
<ele>94</ele>
<time>2020-02-20T00:00:20Z</time></trkpt>
<trkpt lat="55.442797" lon="-2.738106">
<ele>95</ele>
<time>2020-02-20T00:00:28Z</time></trkpt>
<trkpt lat="55.442903" lon="-2.740919">
<ele>98</ele>
<time>2020-02-20T00:01:00Z</time></trkpt>
<trkpt lat="55.442915" lon="-2.741101">
<ele>97</ele>
<time>2020-02-20T00:01:02Z</time></trkpt>
<trkpt lat="55.444981" lon="-2.746756">
<ele>115</ele>
<time>2020-02-20T00:02:19Z</time></trkpt>
<trkpt lat="55.444685" lon="-2.747232">
<ele>119</ele>
<time>2020-02-20T00:02:27Z</time></trkpt>
<trkpt lat="55.444098" lon="-2.747526">
<ele>120</ele>
<time>2020-02-20T00:02:39Z</time></trkpt>
<trkpt lat="55.443172" lon="-2.749451">
<ele>127</ele>
<time>2020-02-20T00:03:08Z</time></trkpt>
<trkpt lat="55.444733" lon="-2.752964">
<ele>140</ele>
<time>2020-02-20T00:03:58Z</time></trkpt>
<trkpt lat="55.445917" lon="-2.754933">
<ele>153</ele>
<time>2020-02-20T00:04:31Z</time></trkpt>
<trkpt lat="55.446193" lon="-2.756525">
<ele>155</ele>
<time>2020-02-20T00:04:50Z</time></trkpt>
<trkpt lat="55.448779" lon="-2.762984">
<ele>159</ele>
<time>2020-02-20T00:06:20Z</time></trkpt>
<trkpt lat="55.449657" lon="-2.764811">
<ele>165</ele>
<time>2020-02-20T00:06:47Z</time></trkpt>
<trkpt lat="55.450131" lon="-2.766421">
<ele>174</ele>
<time>2020-02-20T00:07:08Z</time></trkpt>
<trkpt lat="55.450133" lon="-2.767595">
<ele>182</ele>
<time>2020-02-20T00:07:21Z</time></trkpt>
<trkpt lat="55.449287" lon="-2.770139">
<ele>188</ele>
<time>2020-02-20T00:07:55Z</time></trkpt>
<trkpt lat="55.449562" lon="-2.771212">
<ele>193</ele>
<time>2020-02-20T00:08:08Z</time></trkpt>
<trkpt lat="55.44955" lon="-2.773258">
<ele>191</ele>
<time>2020-02-20T00:08:31Z</time></trkpt>
<trkpt lat="55.44848" lon="-2.776498">
<ele>196</ele>
<time>2020-02-20T00:09:14Z</time></trkpt>
<trkpt lat="55.453117" lon="-2.779443">
<ele>205</ele>
<time>2020-02-20T00:10:53Z</time></trkpt>
<trkpt lat="55.45413" lon="-2.779817">
<ele>212</ele>
<time>2020-02-20T00:11:13Z</time></trkpt>
<trkpt lat="55.45557" lon="-2.779873">
<ele>221</ele>
<time>2020-02-20T00:11:42Z</time></trkpt>
<trkpt lat="55.458972" lon="-2.779219">
<ele>233</ele>
<time>2020-02-20T00:12:51Z</time></trkpt>
<trkpt lat="55.45961" lon="-2.77934">
<ele>234</ele>
<time>2020-02-20T00:13:04Z</time></trkpt>
<trkpt lat="55.46021" lon="-2.779738">
<ele>237</ele>
<time>2020-02-20T00:13:16Z</time></trkpt>
<trkpt lat="55.461085" lon="-2.781054">
<ele>240</ele>
<time>2020-02-20T00:13:39Z</time></trkpt>
<trkpt lat="55.46217" lon="-2.785003">
<ele>245</ele>
<time>2020-02-20T00:14:29Z</time></trkpt>
<trkpt lat="55.46283" lon="-2.786284">
<ele>249</ele>
<time>2020-02-20T00:14:49Z</time></trkpt>
<trkpt lat="55.463603" lon="-2.787067">
<ele>254</ele>
<time>2020-02-20T00:15:07Z</time></trkpt>
<trkpt lat="55.466345" lon="-2.789197">
<ele>267</ele>
<time>2020-02-20T00:16:07Z</time></trkpt>
<trkpt lat="55.470168" lon="-2.792852">
<ele>277</ele>
<time>2020-02-20T00:17:34Z</time></trkpt>
<trkpt lat="55.471512" lon="-2.794636">
<ele>284</ele>
<time>2020-02-20T00:18:08Z</time></trkpt>
<trkpt lat="55.47229" lon="-2.796261">
<ele>289</ele>
<time>2020-02-20T00:18:32Z</time></trkpt>
<trkpt lat="55.472935" lon="-2.798331">
<ele>286</ele>
<time>2020-02-20T00:18:59Z</time></trkpt>
<trkpt lat="55.473717" lon="-2.803051">
<ele>273</ele>
<time>2020-02-20T00:19:55Z</time></trkpt>
<trkpt lat="55.475007" lon="-2.809043">
<ele>259</ele>
<time>2020-02-20T00:21:07Z</time></trkpt>
<trkpt lat="55.476994" lon="-2.815803">
<ele>249</ele>
<time>2020-02-20T00:22:34Z</time></trkpt>
<trkpt lat="55.478042" lon="-2.817818">
<ele>249</ele>
<time>2020-02-20T00:23:05Z</time></trkpt>
<trkpt lat="55.479967" lon="-2.820156">
<ele>244</ele>
<time>2020-02-20T00:23:52Z</time></trkpt>
<trkpt lat="55.480942" lon="-2.821987">
<ele>234</ele>
<time>2020-02-20T00:24:20Z</time></trkpt>
<trkpt lat="55.481674" lon="-2.824396">
<ele>229</ele>
<time>2020-02-20T00:24:51Z</time></trkpt>
<trkpt lat="55.483144" lon="-2.830881">
<ele>218</ele>
<time>2020-02-20T00:26:11Z</time></trkpt>
<trkpt lat="55.483983" lon="-2.832798">
<ele>218</ele>
<time>2020-02-20T00:26:38Z</time></trkpt>
<trkpt lat="55.485193" lon="-2.834435">
<ele>212</ele>
<time>2020-02-20T00:27:09Z</time></trkpt>
<trkpt lat="55.486116" lon="-2.835111">
<ele>208</ele>
<time>2020-02-20T00:27:29Z</time></trkpt>
<trkpt lat="55.487186" lon="-2.835424">
<ele>202</ele>
<time>2020-02-20T00:27:50Z</time></trkpt>
<trkpt lat="55.494391" lon="-2.835282">
<ele>173</ele>
<time>2020-02-20T00:30:15Z</time></trkpt>
<trkpt lat="55.495721" lon="-2.834717">
<ele>174</ele>
<time>2020-02-20T00:30:42Z</time></trkpt>
<trkpt lat="55.496422" lon="-2.834129">
<ele>178</ele>
<time>2020-02-20T00:30:58Z</time></trkpt>
<trkpt lat="55.49757" lon="-2.83277">
<ele>185</ele>
<time>2020-02-20T00:31:25Z</time></trkpt>
<trkpt lat="55.498646" lon="-2.831961">
<ele>192</ele>
<time>2020-02-20T00:31:49Z</time></trkpt>
<trkpt lat="55.499667" lon="-2.831645">
<ele>198</ele>
<time>2020-02-20T00:32:10Z</time></trkpt>
<trkpt lat="55.500958" lon="-2.831977">
<ele>205</ele>
<time>2020-02-20T00:32:36Z</time></trkpt>
<trkpt lat="55.502182" lon="-2.833011">
<ele>212</ele>
<time>2020-02-20T00:33:03Z</time></trkpt>
<trkpt lat="55.504063" lon="-2.835677">
<ele>224</ele>
<time>2020-02-20T00:33:51Z</time></trkpt>
<trkpt lat="55.504609" lon="-2.8369">
<ele>236</ele>
<time>2020-02-20T00:34:09Z</time></trkpt>
<trkpt lat="55.50648" lon="-2.842475">
<ele>255</ele>
<time>2020-02-20T00:35:22Z</time></trkpt>
<trkpt lat="55.507458" lon="-2.84434">
<ele>256</ele>
<time>2020-02-20T00:35:51Z</time></trkpt>
<trkpt lat="55.508252" lon="-2.845177">
<ele>261</ele>
<time>2020-02-20T00:36:10Z</time></trkpt>
<trkpt lat="55.509147" lon="-2.845736">
<ele>265</ele>
<time>2020-02-20T00:36:29Z</time></trkpt>
<trkpt lat="55.511307" lon="-2.846423">
<ele>266</ele>
<time>2020-02-20T00:37:13Z</time></trkpt>
<trkpt lat="55.512108" lon="-2.846582">
<ele>266</ele>
<time>2020-02-20T00:37:29Z</time></trkpt>
<trkpt lat="55.513161" lon="-2.846547">
<ele>268</ele>
<time>2020-02-20T00:37:50Z</time></trkpt>
<trkpt lat="55.514123" lon="-2.846234">
<ele>270</ele>
<time>2020-02-20T00:38:10Z</time></trkpt>
<trkpt lat="55.51524" lon="-2.845468">
<ele>268</ele>
<time>2020-02-20T00:38:34Z</time></trkpt>
<trkpt lat="55.516156" lon="-2.844417">
<ele>268</ele>
<time>2020-02-20T00:38:56Z</time></trkpt>
<trkpt lat="55.516782" lon="-2.843417">
<ele>268</ele>
<time>2020-02-20T00:39:13Z</time></trkpt>
<trkpt lat="55.517648" lon="-2.841342">
<ele>269</ele>
<time>2020-02-20T00:39:42Z</time></trkpt>
<trkpt lat="55.520295" lon="-2.832005">
<ele>250</ele>
<time>2020-02-20T00:41:40Z</time></trkpt>
<trkpt lat="55.521293" lon="-2.829921">
<ele>245</ele>
<time>2020-02-20T00:42:11Z</time></trkpt>
<trkpt lat="55.52292" lon="-2.82779">
<ele>223</ele>
<time>2020-02-20T00:42:52Z</time></trkpt>
<trkpt lat="55.524605" lon="-2.826567">
<ele>213</ele>
<time>2020-02-20T00:43:28Z</time></trkpt>
<trkpt lat="55.525777" lon="-2.826117">
<ele>216</ele>
<time>2020-02-20T00:43:52Z</time></trkpt>
<trkpt lat="55.526584" lon="-2.826012">
<ele>216</ele>
<time>2020-02-20T00:44:09Z</time></trkpt>
<trkpt lat="55.534266" lon="-2.82732">
<ele>204</ele>
<time>2020-02-20T00:46:43Z</time></trkpt>
<trkpt lat="55.534957" lon="-2.827634">
<ele>207</ele>
<time>2020-02-20T00:46:57Z</time></trkpt>
<trkpt lat="55.535563" lon="-2.828136">
<ele>212</ele>
<time>2020-02-20T00:47:11Z</time></trkpt>
<trkpt lat="55.538278" lon="-2.831643">
<ele>223</ele>
<time>2020-02-20T00:48:18Z</time></trkpt>
<trkpt lat="55.539198" lon="-2.832391">
<ele>233</ele>
<time>2020-02-20T00:48:39Z</time></trkpt>
<trkpt lat="55.540357" lon="-2.832782">
<ele>231</ele>
<time>2020-02-20T00:49:02Z</time></trkpt>
<trkpt lat="55.540316" lon="-2.832512">
<ele>231</ele>
<time>2020-02-20T00:49:05Z</time></trkpt>
<trkpt lat="55.540357" lon="-2.832782">
<ele>231</ele>
<time>2020-02-20T00:49:09Z</time></trkpt>
<trkpt lat="55.542661" lon="-2.83294">
<ele>216</ele>
<time>2020-02-20T00:49:55Z</time></trkpt>
<trkpt lat="55.542741" lon="-2.833497">
<ele>217</ele>
<time>2020-02-20T00:50:01Z</time></trkpt>
<trkpt lat="55.544106" lon="-2.83628">
<ele>200</ele>
<time>2020-02-20T00:50:43Z</time></trkpt>
<trkpt lat="55.544665" lon="-2.836674">
<ele>196</ele>
<time>2020-02-20T00:50:55Z</time></trkpt>
<trkpt lat="55.54517" lon="-2.837425">
<ele>189</ele>
<time>2020-02-20T00:51:08Z</time></trkpt>
<trkpt lat="55.5456306" lon="-2.8383311">
<ele>185</ele>
<time>2020-02-20T00:51:22Z</time></trkpt>
<trkpt lat="55.545762" lon="-2.8386158">
<ele>185</ele>
<time>2020-02-20T00:51:26Z</time></trkpt>
<trkpt lat="55.545854" lon="-2.838815">
<ele>185</ele>
<time>2020-02-20T00:51:29Z</time></trkpt>
<trkpt lat="55.54608" lon="-2.839849">
<ele>184</ele>
<time>2020-02-20T00:51:42Z</time></trkpt>
<trkpt lat="55.546464" lon="-2.840747">
<ele>180</ele>
<time>2020-02-20T00:51:54Z</time></trkpt>
<trkpt lat="55.547013" lon="-2.842095">
<ele>174</ele>
<time>2020-02-20T00:52:13Z</time></trkpt>
<trkpt lat="55.5467229" lon="-2.8427488">
<ele>171</ele>
<time>2020-02-20T00:52:23Z</time></trkpt>
<trkpt lat="55.546094" lon="-2.844208">
<ele>165</ele>
<time>2020-02-20T00:52:44Z</time></trkpt>
<trkpt lat="55.545925" lon="-2.845091">
<ele>156</ele>
<time>2020-02-20T00:52:54Z</time></trkpt>
<trkpt lat="55.546491" lon="-2.847926">
<ele>143</ele>
<time>2020-02-20T00:53:28Z</time></trkpt>
<trkpt lat="55.546739" lon="-2.848075">
<ele>142</ele>
<time>2020-02-20T00:53:33Z</time></trkpt>
<trkpt lat="55.547416" lon="-2.847851">
<ele>137</ele>
<time>2020-02-20T00:53:47Z</time></trkpt>
<trkpt lat="55.547729" lon="-2.848434">
<ele>135</ele>
<time>2020-02-20T00:53:56Z</time></trkpt>
<trkpt lat="55.547769" lon="-2.84913">
<ele>135</ele>
<time>2020-02-20T00:54:04Z</time></trkpt>
<trkpt lat="55.547677" lon="-2.849736">
<ele>136</ele>
<time>2020-02-20T00:54:11Z</time></trkpt>
<trkpt lat="55.547044" lon="-2.851657">
<ele>139</ele>
<time>2020-02-20T00:54:37Z</time></trkpt>
<trkpt lat="55.546978" lon="-2.853075">
<ele>128</ele>
<time>2020-02-20T00:54:53Z</time></trkpt>
<trkpt lat="55.548542" lon="-2.856688">
<ele>121</ele>
<time>2020-02-20T00:55:44Z</time></trkpt>
<trkpt lat="55.550411" lon="-2.858897">
<ele>129</ele>
<time>2020-02-20T00:56:29Z</time></trkpt>
<trkpt lat="55.550366" lon="-2.858969">
<ele>129</ele>
<time>2020-02-20T00:56:31Z</time></trkpt>
<trkpt lat="55.551151" lon="-2.85755">
<ele>126</ele>
<time>2020-02-20T00:56:53Z</time></trkpt>
<trkpt lat="55.553355" lon="-2.851228">
<ele>125</ele>
<time>2020-02-20T00:58:17Z</time></trkpt>
<trkpt lat="55.55421" lon="-2.849233">
<ele>121</ele>
<time>2020-02-20T00:58:46Z</time></trkpt>
<trkpt lat="55.555516" lon="-2.847835">
<ele>123</ele>
<time>2020-02-20T00:59:16Z</time></trkpt>
<trkpt lat="55.556793" lon="-2.847312">
<ele>127</ele>
<time>2020-02-20T00:59:42Z</time></trkpt>
<trkpt lat="55.55819" lon="-2.844956">
<ele>129</ele>
<time>2020-02-20T01:00:21Z</time></trkpt>
<trkpt lat="55.559361" lon="-2.844117">
<ele>135</ele>
<time>2020-02-20T01:00:46Z</time></trkpt>
<trkpt lat="55.559749" lon="-2.843526">
<ele>136</ele>
<time>2020-02-20T01:00:57Z</time></trkpt>
<trkpt lat="55.561069" lon="-2.838804">
<ele>137</ele>
<time>2020-02-20T01:01:56Z</time></trkpt>
<trkpt lat="55.561451" lon="-2.837868">
<ele>136</ele>
<time>2020-02-20T01:02:09Z</time></trkpt>
<trkpt lat="55.561765" lon="-2.837504">
<ele>138</ele>
<time>2020-02-20T01:02:17Z</time></trkpt>
<trkpt lat="55.564058" lon="-2.836706">
<ele>143</ele>
<time>2020-02-20T01:03:04Z</time></trkpt>
<trkpt lat="55.564975" lon="-2.837152">
<ele>149</ele>
<time>2020-02-20T01:03:23Z</time></trkpt>
<trkpt lat="55.565648" lon="-2.836798">
<ele>142</ele>
<time>2020-02-20T01:03:37Z</time></trkpt>
<trkpt lat="55.566384" lon="-2.836798">
<ele>141</ele>
<time>2020-02-20T01:03:52Z</time></trkpt>
<trkpt lat="55.567298" lon="-2.837382">
<ele>142</ele>
<time>2020-02-20T01:04:11Z</time></trkpt>
<trkpt lat="55.567903" lon="-2.83751">
<ele>142</ele>
<time>2020-02-20T01:04:23Z</time></trkpt>
<trkpt lat="55.569715" lon="-2.836651">
<ele>144</ele>
<time>2020-02-20T01:05:01Z</time></trkpt>
<trkpt lat="55.572433" lon="-2.836701">
<ele>155</ele>
<time>2020-02-20T01:05:55Z</time></trkpt>
<trkpt lat="55.572867" lon="-2.836863">
<ele>158</ele>
<time>2020-02-20T01:06:04Z</time></trkpt>
<trkpt lat="55.573352" lon="-2.837316">
<ele>163</ele>
<time>2020-02-20T01:06:15Z</time></trkpt>
<trkpt lat="55.574978" lon="-2.84013">
<ele>158</ele>
<time>2020-02-20T01:07:01Z</time></trkpt>
<trkpt lat="55.575224" lon="-2.840415">
<ele>159</ele>
<time>2020-02-20T01:07:07Z</time></trkpt>
<trkpt lat="55.57582" lon="-2.840661">
<ele>162</ele>
<time>2020-02-20T01:07:19Z</time></trkpt>
<trkpt lat="55.576271" lon="-2.840407">
<ele>161</ele>
<time>2020-02-20T01:07:29Z</time></trkpt>
<trkpt lat="55.577087" lon="-2.83839">
<ele>156</ele>
<time>2020-02-20T01:07:57Z</time></trkpt>
<trkpt lat="55.578369" lon="-2.837323">
<ele>150</ele>
<time>2020-02-20T01:08:25Z</time></trkpt>
<trkpt lat="55.578795" lon="-2.837295">
<ele>148</ele>
<time>2020-02-20T01:08:34Z</time></trkpt>
<trkpt lat="55.579474" lon="-2.838107">
<ele>147</ele>
<time>2020-02-20T01:08:50Z</time></trkpt>
<trkpt lat="55.580431" lon="-2.839776">
<ele>144</ele>
<time>2020-02-20T01:09:17Z</time></trkpt>
<trkpt lat="55.580905" lon="-2.840623">
<ele>142</ele>
<time>2020-02-20T01:09:30Z</time></trkpt>
<trkpt lat="55.581114" lon="-2.841421">
<ele>136</ele>
<time>2020-02-20T01:09:40Z</time></trkpt>
<trkpt lat="55.581917" lon="-2.848433">
<ele>122</ele>
<time>2020-02-20T01:11:01Z</time></trkpt>
<trkpt lat="55.582388" lon="-2.850824">
<ele>118</ele>
<time>2020-02-20T01:11:30Z</time></trkpt>
<trkpt lat="55.582761" lon="-2.857082">
<ele>121</ele>
<time>2020-02-20T01:12:41Z</time></trkpt>
<trkpt lat="55.58325" lon="-2.861227">
<ele>124</ele>
<time>2020-02-20T01:13:29Z</time></trkpt>
<trkpt lat="55.583851" lon="-2.861015">
<ele>112</ele>
<time>2020-02-20T01:13:42Z</time></trkpt>
<trkpt lat="55.58435" lon="-2.86139">
<ele>110</ele>
<time>2020-02-20T01:13:52Z</time></trkpt>
<trkpt lat="55.585567" lon="-2.864675">
<ele>117</ele>
<time>2020-02-20T01:14:37Z</time></trkpt>
<trkpt lat="55.586859" lon="-2.867314">
<ele>112</ele>
<time>2020-02-20T01:15:16Z</time></trkpt>
<trkpt lat="55.588187" lon="-2.86873">
<ele>114</ele>
<time>2020-02-20T01:15:48Z</time></trkpt>
<trkpt lat="55.588901" lon="-2.869019">
<ele>115</ele>
<time>2020-02-20T01:16:02Z</time></trkpt>
<trkpt lat="55.589472" lon="-2.868814">
<ele>115</ele>
<time>2020-02-20T01:16:14Z</time></trkpt>
<trkpt lat="55.591748" lon="-2.867337">
<ele>120</ele>
<time>2020-02-20T01:17:02Z</time></trkpt>
<trkpt lat="55.595943" lon="-2.865846">
<ele>122</ele>
<time>2020-02-20T01:18:28Z</time></trkpt>
<trkpt lat="55.597541" lon="-2.865758">
<ele>129</ele>
<time>2020-02-20T01:19:00Z</time></trkpt>
<trkpt lat="55.598137" lon="-2.865844">
<ele>135</ele>
<time>2020-02-20T01:19:12Z</time></trkpt>
<trkpt lat="55.59896" lon="-2.86625">
<ele>141</ele>
<time>2020-02-20T01:19:29Z</time></trkpt>
<trkpt lat="55.599791" lon="-2.86704">
<ele>139</ele>
<time>2020-02-20T01:19:48Z</time></trkpt>
<trkpt lat="55.601717" lon="-2.870295">
<ele>125</ele>
<time>2020-02-20T01:20:42Z</time></trkpt>
<trkpt lat="55.603743" lon="-2.875433">
<ele>121</ele>
<time>2020-02-20T01:21:53Z</time></trkpt>
<trkpt lat="55.605312" lon="-2.876727">
<ele>125</ele>
<time>2020-02-20T01:22:27Z</time></trkpt>
<trkpt lat="55.604956" lon="-2.879167">
<ele>124</ele>
<time>2020-02-20T01:22:56Z</time></trkpt>
<trkpt lat="55.606406" lon="-2.890144">
<ele>132</ele>
<time>2020-02-20T01:25:03Z</time></trkpt>
<trkpt lat="55.606743" lon="-2.894321">
<ele>129</ele>
<time>2020-02-20T01:25:51Z</time></trkpt>
<trkpt lat="55.607141" lon="-2.896647">
<ele>134</ele>
<time>2020-02-20T01:26:19Z</time></trkpt>
<trkpt lat="55.607407" lon="-2.897312">
<ele>137</ele>
<time>2020-02-20T01:26:28Z</time></trkpt>
<trkpt lat="55.607323" lon="-2.897852">
<ele>134</ele>
<time>2020-02-20T01:26:34Z</time></trkpt>
<trkpt lat="55.607561" lon="-2.898069">
<ele>139</ele>
<time>2020-02-20T01:26:40Z</time></trkpt>
<trkpt lat="55.607854" lon="-2.899794">
<ele>140</ele>
<time>2020-02-20T01:27:00Z</time></trkpt>
<trkpt lat="55.609344" lon="-2.905596">
<ele>132</ele>
<time>2020-02-20T01:28:12Z</time></trkpt>
<trkpt lat="55.609767" lon="-2.90638">
<ele>131</ele>
<time>2020-02-20T01:28:24Z</time></trkpt>
<trkpt lat="55.611599" lon="-2.908795">
<ele>132</ele>
<time>2020-02-20T01:29:10Z</time></trkpt>
<trkpt lat="55.613565" lon="-2.913014">
<ele>135</ele>
<time>2020-02-20T01:30:12Z</time></trkpt>
<trkpt lat="55.615212" lon="-2.917335">
<ele>135</ele>
<time>2020-02-20T01:31:11Z</time></trkpt>
<trkpt lat="55.61619" lon="-2.921617">
<ele>133</ele>
<time>2020-02-20T01:32:03Z</time></trkpt>
<trkpt lat="55.61687" lon="-2.923074">
<ele>137</ele>
<time>2020-02-20T01:32:25Z</time></trkpt>
<trkpt lat="55.617395" lon="-2.925284">
<ele>133</ele>
<time>2020-02-20T01:32:52Z</time></trkpt>
<trkpt lat="55.617407" lon="-2.927266">
<ele>131</ele>
<time>2020-02-20T01:33:14Z</time></trkpt>
<trkpt lat="55.616859" lon="-2.930801">
<ele>127</ele>
<time>2020-02-20T01:33:56Z</time></trkpt>
<trkpt lat="55.616139" lon="-2.937298">
<ele>137</ele>
<time>2020-02-20T01:35:11Z</time></trkpt>
<trkpt lat="55.616512" lon="-2.940068">
<ele>142</ele>
<time>2020-02-20T01:35:43Z</time></trkpt>
<trkpt lat="55.616672" lon="-2.942765">
<ele>144</ele>
<time>2020-02-20T01:36:14Z</time></trkpt>
<trkpt lat="55.61703" lon="-2.944445">
<ele>141</ele>
<time>2020-02-20T01:36:34Z</time></trkpt>
<trkpt lat="55.617621" lon="-2.948994">
<ele>135</ele>
<time>2020-02-20T01:37:27Z</time></trkpt>
<trkpt lat="55.618542" lon="-2.952732">
<ele>134</ele>
<time>2020-02-20T01:38:13Z</time></trkpt>
<trkpt lat="55.619699" lon="-2.95503">
<ele>140</ele>
<time>2020-02-20T01:38:48Z</time></trkpt>
<trkpt lat="55.621686" lon="-2.956923">
<ele>141</ele>
<time>2020-02-20T01:39:33Z</time></trkpt>
<trkpt lat="55.622878" lon="-2.957734">
<ele>146</ele>
<time>2020-02-20T01:39:58Z</time></trkpt>
<trkpt lat="55.623924" lon="-2.958689">
<ele>147</ele>
<time>2020-02-20T01:40:22Z</time></trkpt>
<trkpt lat="55.624733" lon="-2.959768">
<ele>147</ele>
<time>2020-02-20T01:40:42Z</time></trkpt>
<trkpt lat="55.625697" lon="-2.961603">
<ele>142</ele>
<time>2020-02-20T01:41:11Z</time></trkpt>
<trkpt lat="55.626239" lon="-2.964345">
<ele>138</ele>
<time>2020-02-20T01:41:44Z</time></trkpt>
<trkpt lat="55.62678" lon="-2.965602">
<ele>143</ele>
<time>2020-02-20T01:42:01Z</time></trkpt>
<trkpt lat="55.626966" lon="-2.970814">
<ele>131</ele>
<time>2020-02-20T01:43:00Z</time></trkpt>
<trkpt lat="55.62765" lon="-2.975164">
<ele>134</ele>
<time>2020-02-20T01:43:52Z</time></trkpt>
<trkpt lat="55.628008" lon="-2.978789">
<ele>137</ele>
<time>2020-02-20T01:44:33Z</time></trkpt>
<trkpt lat="55.62825" lon="-2.979586">
<ele>137</ele>
<time>2020-02-20T01:44:43Z</time></trkpt>
<trkpt lat="55.629089" lon="-2.981144">
<ele>140</ele>
<time>2020-02-20T01:45:08Z</time></trkpt>
<trkpt lat="55.629331" lon="-2.982327">
<ele>140</ele>
<time>2020-02-20T01:45:22Z</time></trkpt>
<trkpt lat="55.62984" lon="-2.988952">
<ele>140</ele>
<time>2020-02-20T01:46:38Z</time></trkpt>
<trkpt lat="55.629532" lon="-2.994758">
<ele>143</ele>
<time>2020-02-20T01:47:44Z</time></trkpt>
<trkpt lat="55.628337" lon="-3.000104">
<ele>147</ele>
<time>2020-02-20T01:48:49Z</time></trkpt>
<trkpt lat="55.627308" lon="-3.003963">
<ele>152</ele>
<time>2020-02-20T01:49:37Z</time></trkpt>
<trkpt lat="55.626228" lon="-3.006034">
<ele>149</ele>
<time>2020-02-20T01:50:09Z</time></trkpt>
<trkpt lat="55.625155" lon="-3.008754">
<ele>153</ele>
<time>2020-02-20T01:50:46Z</time></trkpt>
<trkpt lat="55.623582" lon="-3.014945">
<ele>152</ele>
<time>2020-02-20T01:52:03Z</time></trkpt>
<trkpt lat="55.623705" lon="-3.018774">
<ele>141</ele>
<time>2020-02-20T01:52:47Z</time></trkpt>
<trkpt lat="55.623841" lon="-3.019691">
<ele>138</ele>
<time>2020-02-20T01:52:57Z</time></trkpt>
<trkpt lat="55.624201" lon="-3.020096">
<ele>139</ele>
<time>2020-02-20T01:53:06Z</time></trkpt>
<trkpt lat="55.624641" lon="-3.021358">
<ele>144</ele>
<time>2020-02-20T01:53:23Z</time></trkpt>
<trkpt lat="55.62508" lon="-3.024828">
<ele>148</ele>
<time>2020-02-20T01:54:03Z</time></trkpt>
<trkpt lat="55.625456" lon="-3.037869">
<ele>157</ele>
<time>2020-02-20T01:56:31Z</time></trkpt>
<trkpt lat="55.624955" lon="-3.046331">
<ele>162</ele>
<time>2020-02-20T01:58:07Z</time></trkpt>
<trkpt lat="55.624157" lon="-3.050455">
<ele>157</ele>
<time>2020-02-20T01:58:56Z</time></trkpt>
<trkpt lat="55.623714" lon="-3.051637">
<ele>156</ele>
<time>2020-02-20T01:59:12Z</time></trkpt>
<trkpt lat="55.623591" lon="-3.052973">
<ele>162</ele>
<time>2020-02-20T01:59:28Z</time></trkpt>
<trkpt lat="55.623141" lon="-3.054579">
<ele>164</ele>
<time>2020-02-20T01:59:48Z</time></trkpt>
<trkpt lat="55.620002" lon="-3.06047">
<ele>149</ele>
<time>2020-02-20T02:01:19Z</time></trkpt>
<trkpt lat="55.61972" lon="-3.062017">
<ele>149</ele>
<time>2020-02-20T02:01:38Z</time></trkpt>
<trkpt lat="55.616247" lon="-3.070277">
<ele>154</ele>
<time>2020-02-20T02:03:34Z</time></trkpt>
<trkpt lat="55.615801" lon="-3.072271">
<ele>157</ele>
<time>2020-02-20T02:03:59Z</time></trkpt>
<trkpt lat="55.615837" lon="-3.075308">
<ele>152</ele>
<time>2020-02-20T02:04:33Z</time></trkpt>
<trkpt lat="55.616216" lon="-3.076355">
<ele>151</ele>
<time>2020-02-20T02:04:47Z</time></trkpt>
<trkpt lat="55.617124" lon="-3.077406">
<ele>152</ele>
<time>2020-02-20T02:05:09Z</time></trkpt>
<trkpt lat="55.618668" lon="-3.078793">
<ele>149</ele>
<time>2020-02-20T02:05:44Z</time></trkpt>
<trkpt lat="55.622105" lon="-3.083021">
<ele>152</ele>
<time>2020-02-20T02:07:07Z</time></trkpt>
<trkpt lat="55.627892" lon="-3.09395">
<ele>160</ele>
<time>2020-02-20T02:09:57Z</time></trkpt>
<trkpt lat="55.630157" lon="-3.098632">
<ele>156</ele>
<time>2020-02-20T02:11:07Z</time></trkpt>
<trkpt lat="55.630684" lon="-3.098902">
<ele>158</ele>
<time>2020-02-20T02:11:18Z</time></trkpt>
<trkpt lat="55.63216" lon="-3.098902">
<ele>156</ele>
<time>2020-02-20T02:11:47Z</time></trkpt>
<trkpt lat="55.637356" lon="-3.098417">
<ele>156</ele>
<time>2020-02-20T02:13:31Z</time></trkpt>
<trkpt lat="55.64094" lon="-3.100162">
<ele>155</ele>
<time>2020-02-20T02:14:46Z</time></trkpt>
<trkpt lat="55.641983" lon="-3.101139">
<ele>159</ele>
<time>2020-02-20T02:15:10Z</time></trkpt>
<trkpt lat="55.642424" lon="-3.101365">
<ele>163</ele>
<time>2020-02-20T02:15:19Z</time></trkpt>
<trkpt lat="55.642677" lon="-3.101877">
<ele>163</ele>
<time>2020-02-20T02:15:26Z</time></trkpt>
<trkpt lat="55.642991" lon="-3.103856">
<ele>156</ele>
<time>2020-02-20T02:15:50Z</time></trkpt>
<trkpt lat="55.642953" lon="-3.105786">
<ele>151</ele>
<time>2020-02-20T02:16:12Z</time></trkpt>
<trkpt lat="55.641237" lon="-3.130676">
<ele>177</ele>
<time>2020-02-20T02:20:55Z</time></trkpt>
<trkpt lat="55.641357" lon="-3.133201">
<ele>179</ele>
<time>2020-02-20T02:21:24Z</time></trkpt>
<trkpt lat="55.641873" lon="-3.135008">
<ele>177</ele>
<time>2020-02-20T02:21:47Z</time></trkpt>
<trkpt lat="55.643908" lon="-3.1383">
<ele>166</ele>
<time>2020-02-20T02:22:42Z</time></trkpt>
<trkpt lat="55.644429" lon="-3.139824">
<ele>165</ele>
<time>2020-02-20T02:23:02Z</time></trkpt>
<trkpt lat="55.645441" lon="-3.149229">
<ele>161</ele>
<time>2020-02-20T02:24:50Z</time></trkpt>
<trkpt lat="55.647687" lon="-3.161556">
<ele>170</ele>
<time>2020-02-20T02:27:17Z</time></trkpt>
<trkpt lat="55.648699" lon="-3.165329">
<ele>178</ele>
<time>2020-02-20T02:28:04Z</time></trkpt>
<trkpt lat="55.649095" lon="-3.168712">
<ele>171</ele>
<time>2020-02-20T02:28:43Z</time></trkpt>
<trkpt lat="55.650203" lon="-3.175091">
<ele>168</ele>
<time>2020-02-20T02:29:59Z</time></trkpt>
<trkpt lat="55.650777" lon="-3.180174">
<ele>165</ele>
<time>2020-02-20T02:30:57Z</time></trkpt>
<trkpt lat="55.651585" lon="-3.184439">
<ele>167</ele>
<time>2020-02-20T02:31:48Z</time></trkpt>
<trkpt lat="55.651557" lon="-3.184624">
<ele>167</ele>
<time>2020-02-20T02:31:50Z</time></trkpt>
<trkpt lat="55.651812" lon="-3.18458">
<ele>168</ele>
<time>2020-02-20T02:31:55Z</time></trkpt>
<trkpt lat="55.652266" lon="-3.184938">
<ele>169</ele>
<time>2020-02-20T02:32:05Z</time></trkpt>
<trkpt lat="55.656091" lon="-3.189899">
<ele>171</ele>
<time>2020-02-20T02:33:40Z</time></trkpt>
<trkpt lat="55.658151" lon="-3.191478">
<ele>170</ele>
<time>2020-02-20T02:34:25Z</time></trkpt>
<trkpt lat="55.662409" lon="-3.192968">
<ele>175</ele>
<time>2020-02-20T02:35:52Z</time></trkpt>
<trkpt lat="55.664955" lon="-3.194937">
<ele>172</ele>
<time>2020-02-20T02:36:48Z</time></trkpt>
<trkpt lat="55.666844" lon="-3.195961">
<ele>173</ele>
<time>2020-02-20T02:37:27Z</time></trkpt>
<trkpt lat="55.668397" lon="-3.197239">
<ele>175</ele>
<time>2020-02-20T02:38:02Z</time></trkpt>
<trkpt lat="55.671097" lon="-3.199923">
<ele>173</ele>
<time>2020-02-20T02:39:04Z</time></trkpt>
<trkpt lat="55.677724" lon="-3.205353">
<ele>182</ele>
<time>2020-02-20T02:41:30Z</time></trkpt>
<trkpt lat="55.680285" lon="-3.206322">
<ele>188</ele>
<time>2020-02-20T02:42:22Z</time></trkpt>
<trkpt lat="55.680834" lon="-3.206712">
<ele>187</ele>
<time>2020-02-20T02:42:34Z</time></trkpt>
<trkpt lat="55.681567" lon="-3.207613">
<ele>187</ele>
<time>2020-02-20T02:42:52Z</time></trkpt>
<trkpt lat="55.68234" lon="-3.209027">
<ele>189</ele>
<time>2020-02-20T02:43:14Z</time></trkpt>
<trkpt lat="55.684492" lon="-3.210834">
<ele>190</ele>
<time>2020-02-20T02:44:02Z</time></trkpt>
<trkpt lat="55.689882" lon="-3.212648">
<ele>190</ele>
<time>2020-02-20T02:45:52Z</time></trkpt>
<trkpt lat="55.691604" lon="-3.213074">
<ele>189</ele>
<time>2020-02-20T02:46:27Z</time></trkpt>
<trkpt lat="55.69886" lon="-3.212458">
<ele>195</ele>
<time>2020-02-20T02:48:52Z</time></trkpt>
<trkpt lat="55.701925" lon="-3.212097">
<ele>196</ele>
<time>2020-02-20T02:49:54Z</time></trkpt>
<trkpt lat="55.703459" lon="-3.211764">
<ele>195</ele>
<time>2020-02-20T02:50:25Z</time></trkpt>
<trkpt lat="55.70501" lon="-3.211039">
<ele>196</ele>
<time>2020-02-20T02:50:57Z</time></trkpt>
<trkpt lat="55.706212" lon="-3.209527">
<ele>196</ele>
<time>2020-02-20T02:51:27Z</time></trkpt>
<trkpt lat="55.708933" lon="-3.207832">
<ele>205</ele>
<time>2020-02-20T02:52:24Z</time></trkpt>
<trkpt lat="55.710079" lon="-3.207617">
<ele>201</ele>
<time>2020-02-20T02:52:48Z</time></trkpt>
<trkpt lat="55.711715" lon="-3.206553">
<ele>200</ele>
<time>2020-02-20T02:53:22Z</time></trkpt>
<trkpt lat="55.713529" lon="-3.206479">
<ele>200</ele>
<time>2020-02-20T02:53:59Z</time></trkpt>
<trkpt lat="55.716642" lon="-3.205076">
<ele>203</ele>
<time>2020-02-20T02:55:03Z</time></trkpt>
<trkpt lat="55.718172" lon="-3.204589">
<ele>202</ele>
<time>2020-02-20T02:55:34Z</time></trkpt>
<trkpt lat="55.720393" lon="-3.204577">
<ele>205</ele>
<time>2020-02-20T02:56:19Z</time></trkpt>
<trkpt lat="55.723322" lon="-3.20521">
<ele>210</ele>
<time>2020-02-20T02:57:18Z</time></trkpt>
<trkpt lat="55.728558" lon="-3.205586">
<ele>210</ele>
<time>2020-02-20T02:59:03Z</time></trkpt>
<trkpt lat="55.730845" lon="-3.20614">
<ele>217</ele>
<time>2020-02-20T02:59:49Z</time></trkpt>
<trkpt lat="55.737962" lon="-3.205947">
<ele>225</ele>
<time>2020-02-20T03:02:12Z</time></trkpt>
<trkpt lat="55.739289" lon="-3.206153">
<ele>225</ele>
<time>2020-02-20T03:02:38Z</time></trkpt>
<trkpt lat="55.741246" lon="-3.205771">
<ele>226</ele>
<time>2020-02-20T03:03:18Z</time></trkpt>
<trkpt lat="55.745604" lon="-3.204519">
<ele>227</ele>
<time>2020-02-20T03:04:46Z</time></trkpt>
<trkpt lat="55.747063" lon="-3.20448">
<ele>229</ele>
<time>2020-02-20T03:05:16Z</time></trkpt>
<trkpt lat="55.748278" lon="-3.204981">
<ele>232</ele>
<time>2020-02-20T03:05:41Z</time></trkpt>
<trkpt lat="55.74989" lon="-3.20617">
<ele>234</ele>
<time>2020-02-20T03:06:16Z</time></trkpt>
<trkpt lat="55.751134" lon="-3.206629">
<ele>238</ele>
<time>2020-02-20T03:06:41Z</time></trkpt>
<trkpt lat="55.752427" lon="-3.206692">
<ele>244</ele>
<time>2020-02-20T03:07:07Z</time></trkpt>
<trkpt lat="55.75393" lon="-3.206437">
<ele>245</ele>
<time>2020-02-20T03:07:37Z</time></trkpt>
<trkpt lat="55.755519" lon="-3.2064">
<ele>242</ele>
<time>2020-02-20T03:08:09Z</time></trkpt>
<trkpt lat="55.760289" lon="-3.20713">
<ele>245</ele>
<time>2020-02-20T03:09:45Z</time></trkpt>
<trkpt lat="55.768232" lon="-3.208649">
<ele>255</ele>
<time>2020-02-20T03:12:25Z</time></trkpt>
<trkpt lat="55.771313" lon="-3.21055">
<ele>260</ele>
<time>2020-02-20T03:13:30Z</time></trkpt>
<trkpt lat="55.773884" lon="-3.212457">
<ele>267</ele>
<time>2020-02-20T03:14:26Z</time></trkpt>
<trkpt lat="55.774988" lon="-3.214003">
<ele>276</ele>
<time>2020-02-20T03:14:54Z</time></trkpt>
<trkpt lat="55.775504" lon="-3.215166">
<ele>279</ele>
<time>2020-02-20T03:15:11Z</time></trkpt>
<trkpt lat="55.776189" lon="-3.217413">
<ele>280</ele>
<time>2020-02-20T03:15:40Z</time></trkpt>
<trkpt lat="55.776705" lon="-3.218341">
<ele>282</ele>
<time>2020-02-20T03:15:55Z</time></trkpt>
<trkpt lat="55.776989" lon="-3.218555">
<ele>283</ele>
<time>2020-02-20T03:16:01Z</time></trkpt>
<trkpt lat="55.778827" lon="-3.219069">
<ele>290</ele>
<time>2020-02-20T03:16:38Z</time></trkpt>
<trkpt lat="55.780763" lon="-3.218595">
<ele>288</ele>
<time>2020-02-20T03:17:17Z</time></trkpt>
<trkpt lat="55.782305" lon="-3.218941">
<ele>284</ele>
<time>2020-02-20T03:17:48Z</time></trkpt>
<trkpt lat="55.784476" lon="-3.220366">
<ele>276</ele>
<time>2020-02-20T03:18:35Z</time></trkpt>
<trkpt lat="55.785554" lon="-3.221419">
<ele>271</ele>
<time>2020-02-20T03:18:59Z</time></trkpt>
<trkpt lat="55.786009" lon="-3.221622">
<ele>269</ele>
<time>2020-02-20T03:19:09Z</time></trkpt>
<trkpt lat="55.786292" lon="-3.221695">
<ele>267</ele>
<time>2020-02-20T03:19:15Z</time></trkpt>
<trkpt lat="55.789563" lon="-3.217956">
<ele>267</ele>
<time>2020-02-20T03:20:32Z</time></trkpt>
<trkpt lat="55.798657" lon="-3.206966">
<ele>275</ele>
<time>2020-02-20T03:24:13Z</time></trkpt>
<trkpt lat="55.807284" lon="-3.200693">
<ele>251</ele>
<time>2020-02-20T03:27:19Z</time></trkpt>
<trkpt lat="55.808215" lon="-3.200509">
<ele>246</ele>
<time>2020-02-20T03:27:38Z</time></trkpt>
<trkpt lat="55.809381" lon="-3.20082">
<ele>246</ele>
<time>2020-02-20T03:28:02Z</time></trkpt>
<trkpt lat="55.810145" lon="-3.201298">
<ele>244</ele>
<time>2020-02-20T03:28:18Z</time></trkpt>
<trkpt lat="55.810889" lon="-3.201362">
<ele>244</ele>
<time>2020-02-20T03:28:33Z</time></trkpt>
<trkpt lat="55.810978" lon="-3.201513">
<ele>245</ele>
<time>2020-02-20T03:28:35Z</time></trkpt>
<trkpt lat="55.811162" lon="-3.201289">
<ele>245</ele>
<time>2020-02-20T03:28:40Z</time></trkpt>
<trkpt lat="55.811759" lon="-3.201291">
<ele>247</ele>
<time>2020-02-20T03:28:52Z</time></trkpt>
<trkpt lat="55.813009" lon="-3.202053">
<ele>246</ele>
<time>2020-02-20T03:29:18Z</time></trkpt>
<trkpt lat="55.814012" lon="-3.202436">
<ele>248</ele>
<time>2020-02-20T03:29:39Z</time></trkpt>
<trkpt lat="55.819954" lon="-3.202107">
<ele>251</ele>
<time>2020-02-20T03:31:38Z</time></trkpt>
<trkpt lat="55.823075" lon="-3.202339">
<ele>237</ele>
<time>2020-02-20T03:32:41Z</time></trkpt>
<trkpt lat="55.826886" lon="-3.201532">
<ele>219</ele>
<time>2020-02-20T03:33:58Z</time></trkpt>
<trkpt lat="55.829546" lon="-3.201742">
<ele>204</ele>
<time>2020-02-20T03:34:51Z</time></trkpt>
<trkpt lat="55.830354" lon="-3.201942">
<ele>196</ele>
<time>2020-02-20T03:35:07Z</time></trkpt>
<trkpt lat="55.831215" lon="-3.201624">
<ele>194</ele>
<time>2020-02-20T03:35:25Z</time></trkpt>
<trkpt lat="55.833502" lon="-3.201186">
<ele>191</ele>
<time>2020-02-20T03:36:11Z</time></trkpt>
<trkpt lat="55.834153" lon="-3.200751">
<ele>188</ele>
<time>2020-02-20T03:36:25Z</time></trkpt>
<trkpt lat="55.834956" lon="-3.200512">
<ele>181</ele>
<time>2020-02-20T03:36:41Z</time></trkpt>
<trkpt lat="55.836365" lon="-3.199602">
<ele>176</ele>
<time>2020-02-20T03:37:11Z</time></trkpt>
<trkpt lat="55.837838" lon="-3.199745">
<ele>169</ele>
<time>2020-02-20T03:37:41Z</time></trkpt>
<trkpt lat="55.840087" lon="-3.199095">
<ele>161</ele>
<time>2020-02-20T03:38:26Z</time></trkpt>
<trkpt lat="55.841803" lon="-3.197963">
<ele>152</ele>
<time>2020-02-20T03:39:03Z</time></trkpt>
<trkpt lat="55.842624" lon="-3.197028">
<ele>147</ele>
<time>2020-02-20T03:39:23Z</time></trkpt>
<trkpt lat="55.843353" lon="-3.194647">
<ele>148</ele>
<time>2020-02-20T03:39:53Z</time></trkpt>
<trkpt lat="55.844601" lon="-3.192805">
<ele>149</ele>
<time>2020-02-20T03:40:26Z</time></trkpt>
<trkpt lat="55.845712" lon="-3.192703">
<ele>153</ele>
<time>2020-02-20T03:40:48Z</time></trkpt>
<trkpt lat="55.851544" lon="-3.190406">
<ele>169</ele>
<time>2020-02-20T03:42:48Z</time></trkpt>
<trkpt lat="55.852143" lon="-3.190469">
<ele>171</ele>
<time>2020-02-20T03:43:00Z</time></trkpt>
<trkpt lat="55.852608" lon="-3.191087">
<ele>174</ele>
<time>2020-02-20T03:43:11Z</time></trkpt>
<trkpt lat="55.853627" lon="-3.18992">
<ele>174</ele>
<time>2020-02-20T03:43:36Z</time></trkpt>
<trkpt lat="55.854468" lon="-3.189266">
<ele>174</ele>
<time>2020-02-20T03:43:54Z</time></trkpt>
<trkpt lat="55.855738" lon="-3.188612">
<ele>179</ele>
<time>2020-02-20T03:44:20Z</time></trkpt>
<trkpt lat="55.856068" lon="-3.188648">
<ele>181</ele>
<time>2020-02-20T03:44:27Z</time></trkpt>
<trkpt lat="55.856827" lon="-3.188299">
<ele>181</ele>
<time>2020-02-20T03:44:43Z</time></trkpt>
<trkpt lat="55.858924" lon="-3.186712">
<ele>172</ele>
<time>2020-02-20T03:45:28Z</time></trkpt>
<trkpt lat="55.869072" lon="-3.178611">
<ele>161</ele>
<time>2020-02-20T03:49:11Z</time></trkpt>
<trkpt lat="55.879428" lon="-3.17061">
<ele>155</ele>
<time>2020-02-20T03:52:57Z</time></trkpt>
<trkpt lat="55.881978" lon="-3.168488">
<ele>156</ele>
<time>2020-02-20T03:53:54Z</time></trkpt>
<trkpt lat="55.882326" lon="-3.167879">
<ele>154</ele>
<time>2020-02-20T03:54:04Z</time></trkpt>
<trkpt lat="55.882546" lon="-3.168005">
<ele>153</ele>
<time>2020-02-20T03:54:08Z</time></trkpt>
<trkpt lat="55.888145" lon="-3.16351">
<ele>139</ele>
<time>2020-02-20T03:56:11Z</time></trkpt>
<trkpt lat="55.8887" lon="-3.16338">
<ele>138</ele>
<time>2020-02-20T03:56:22Z</time></trkpt>
<trkpt lat="55.888958" lon="-3.16286">
<ele>140</ele>
<time>2020-02-20T03:56:30Z</time></trkpt>
<trkpt lat="55.889979" lon="-3.162027">
<ele>138</ele>
<time>2020-02-20T03:56:53Z</time></trkpt>
<trkpt lat="55.890293" lon="-3.161944">
<ele>136</ele>
<time>2020-02-20T03:56:59Z</time></trkpt>
<trkpt lat="55.890525" lon="-3.161987">
<ele>135</ele>
<time>2020-02-20T03:57:04Z</time></trkpt>
<trkpt lat="55.891217" lon="-3.161286">
<ele>131</ele>
<time>2020-02-20T03:57:20Z</time></trkpt>
<trkpt lat="55.892083" lon="-3.161181">
<ele>127</ele>
<time>2020-02-20T03:57:37Z</time></trkpt>
<trkpt lat="55.894324" lon="-3.161801">
<ele>120</ele>
<time>2020-02-20T03:58:23Z</time></trkpt>
<trkpt lat="55.896527" lon="-3.161519">
<ele>125</ele>
<time>2020-02-20T03:59:07Z</time></trkpt>
<trkpt lat="55.896529" lon="-3.161595">
<ele>125</ele>
<time>2020-02-20T03:59:08Z</time></trkpt>
<trkpt lat="55.896697" lon="-3.161705">
<ele>126</ele>
<time>2020-02-20T03:59:11Z</time></trkpt>
<trkpt lat="55.896762" lon="-3.162721">
<ele>129</ele>
<time>2020-02-20T03:59:23Z</time></trkpt>
<trkpt lat="55.897983" lon="-3.162823">
<ele>132</ele>
<time>2020-02-20T03:59:47Z</time></trkpt>
<trkpt lat="55.897947" lon="-3.163821">
<ele>134</ele>
<time>2020-02-20T03:59:58Z</time></trkpt>
<trkpt lat="55.898548" lon="-3.164231">
<ele>133</ele>
<time>2020-02-20T04:00:11Z</time></trkpt>
<trkpt lat="55.899051" lon="-3.164374">
<ele>131</ele>
<time>2020-02-20T04:00:22Z</time></trkpt>
<trkpt lat="55.898785" lon="-3.165899">
<ele>130</ele>
<time>2020-02-20T04:00:39Z</time></trkpt>
<trkpt lat="55.899474" lon="-3.166171">
<ele>130</ele>
<time>2020-02-20T04:00:54Z</time></trkpt>
<trkpt lat="55.899733" lon="-3.175839">
<ele>134</ele>
<time>2020-02-20T04:02:42Z</time></trkpt>
<trkpt lat="55.900493" lon="-3.176298">
<ele>132</ele>
<time>2020-02-20T04:02:58Z</time></trkpt>
<trkpt lat="55.901173" lon="-3.177033">
<ele>129</ele>
<time>2020-02-20T04:03:14Z</time></trkpt>
<trkpt lat="55.902791" lon="-3.179605">
<ele>130</ele>
<time>2020-02-20T04:03:58Z</time></trkpt>
</trkseg>
</trk>
</gpx>